Time,TemperatureF,DewpointF,PressureIn,WindDirection,WindDirectionDegrees,WindSpeedMPH,WindSpeedGustMPH,Humidity,HourlyPrecipIn,Conditions,Clouds,dailyrainin,SoftwareType,DateUTC
2013-01-21 00:03:00,28.0,6.0,-100.00,SSW,205,18.0,27.0,39,0.00,,,-99.99,,2013-01-21 07:03:00,
2013-01-21 00:12:00,29.0,6.0,-100.00,SSW,205,20.0,29.0,38,0.00,,,-99.99,,2013-01-21 07:12:00,
2013-01-21 00:22:00,30.0,7.0,-100.00,SSW,209,18.0,27.0,38,0.00,,,-99.99,,2013-01-21 07:22:00,
2013-01-21 00:33:00,29.0,7.0,-100.00,SSW,213,22.0,29.0,39,0.00,,,-99.99,,2013-01-21 07:33:00,
2013-01-21 00:42:00,29.0,7.0,-100.00,SW,216,22.0,30.0,38,0.00,,,-99.99,,2013-01-21 07:42:00,
2013-01-21 00:52:00,29.0,8.0,-100.00,SW,219,19.0,26.0,39,0.00,,,-99.99,,2013-01-21 07:52:00,
2013-01-21 01:03:00,29.0,7.0,-100.00,SW,215,20.0,28.0,39,0.00,,,-99.99,,2013-01-21 08:03:00,
2013-01-21 01:13:00,29.0,8.0,-100.00,SSW,213,19.0,28.0,39,0.00,,,-99.99,,2013-01-21 08:13:00,
2013-01-21 01:22:00,29.0,8.0,-100.00,SW,217,17.0,23.0,40,0.00,,,-99.99,,2013-01-21 08:22:00,
2013-01-21 01:32:00,29.0,8.0,-100.00,SW,220,15.0,23.0,41,0.00,,,-99.99,,2013-01-21 08:32:00,
2013-01-21 01:42:00,29.0,8.0,-100.00,WSW,237,11.0,17.0,41,0.00,,,-99.99,,2013-01-21 08:42:00,
2013-01-21 01:53:00,29.0,8.0,-100.00,WSW,241,12.0,18.0,40,0.00,,,-99.99,,2013-01-21 08:53:00,
2013-01-21 02:02:00,29.0,8.0,-100.00,SW,224,16.0,22.0,40,0.00,,,-99.99,,2013-01-21 09:02:00,
2013-01-21 02:12:00,28.0,8.0,-100.00,SW,229,16.0,22.0,41,0.00,,,-99.99,,2013-01-21 09:12:00,
2013-01-21 02:22:00,28.0,8.0,-100.00,SW,236,12.0,19.0,41,0.00,,,-99.99,,2013-01-21 09:22:00,
2013-01-21 02:33:00,29.0,8.0,-100.00,SW,226,12.0,19.0,41,0.00,,,-99.99,,2013-01-21 09:33:00,
2013-01-21 02:42:00,29.0,8.0,-100.00,SW,217,17.0,24.0,40,0.00,,,-99.99,,2013-01-21 09:42:00,
2013-01-21 02:52:00,29.0,8.0,-100.00,SW,217,17.0,29.0,40,0.00,,,-99.99,,2013-01-21 09:52:00,
2013-01-21 03:02:00,29.0,8.0,-100.00,SW,217,20.0,29.0,39,0.00,,,-99.99,,2013-01-21 10:02:00,
2013-01-21 03:12:00,29.0,8.0,-100.00,SW,216,21.0,29.0,40,0.00,,,-99.99,,2013-01-21 10:12:00,
2013-01-21 03:22:00,29.0,8.0,-100.00,SW,217,23.0,32.0,40,0.00,,,-99.99,,2013-01-21 10:22:00,
2013-01-21 03:32:00,29.0,8.0,-100.00,SW,215,23.0,31.0,40,0.00,,,-99.99,,2013-01-21 10:32:00,
2013-01-21 03:43:00,29.0,8.0,-100.00,SSW,212,25.0,32.0,40,0.00,,,-99.99,,2013-01-21 10:43:00,
2013-01-21 03:52:00,28.0,8.0,-100.00,SW,215,27.0,38.0,41,0.00,,,-99.99,,2013-01-21 10:52:00,
2013-01-21 04:02:00,28.0,8.0,-100.00,SSW,213,26.0,34.0,41,0.00,,,-99.99,,2013-01-21 11:02:00,
2013-01-21 04:13:00,28.0,8.0,-100.00,SW,215,24.0,31.0,41,0.00,,,-99.99,,2013-01-21 11:13:00,
2013-01-21 04:23:00,28.0,7.0,-100.00,SSW,212,28.0,39.0,41,0.00,,,-99.99,,2013-01-21 11:23:00,
2013-01-21 04:33:00,28.0,7.0,-100.00,SSW,210,30.0,39.0,41,0.00,,,-99.99,,2013-01-21 11:33:00,
2013-01-21 04:42:00,28.0,8.0,-100.00,SSW,213,31.0,42.0,42,0.00,,,-99.99,,2013-01-21 11:42:00,
2013-01-21 04:53:00,28.0,8.0,-100.00,SSW,213,31.0,42.0,42,0.00,,,-99.99,,2013-01-21 11:53:00,
2013-01-21 05:02:00,28.0,8.0,-100.00,SSW,213,29.0,45.0,42,0.00,,,-99.99,,2013-01-21 12:02:00,
2013-01-21 05:12:00,28.0,8.0,-100.00,SSW,213,29.0,39.0,41,0.00,,,-99.99,,2013-01-21 12:12:00,
2013-01-21 05:22:00,28.0,8.0,-100.00,SSW,212,29.0,40.0,42,0.00,,,-99.99,,2013-01-21 12:22:00,
2013-01-21 05:32:00,29.0,8.0,-100.00,SSW,213,29.0,40.0,41,0.00,,,-99.99,,2013-01-21 12:32:00,
2013-01-21 05:42:00,29.0,8.0,-100.00,SSW,213,30.0,40.0,40,0.00,,,-99.99,,2013-01-21 12:42:00,
2013-01-21 05:52:00,29.0,7.0,-100.00,SSW,213,30.0,39.0,39,0.00,,,-99.99,,2013-01-21 12:52:00,
2013-01-21 06:02:00,29.0,7.0,-100.00,SSW,210,32.0,45.0,38,0.00,,,-99.99,,2013-01-21 13:02:00,
2013-01-21 06:12:00,29.0,7.0,-100.00,SSW,210,32.0,45.0,39,0.00,,,-99.99,,2013-01-21 13:12:00,
2013-01-21 06:23:00,29.0,8.0,-100.00,SSW,209,32.0,42.0,40,0.00,,,-99.99,,2013-01-21 13:23:00,
2013-01-21 06:33:00,30.0,9.0,-100.00,SSW,213,32.0,45.0,41,0.00,,,-99.99,,2013-01-21 13:33:00,
2013-01-21 06:43:00,29.0,9.0,-100.00,SW,215,34.0,43.0,41,0.00,,,-99.99,,2013-01-21 13:43:00,
2013-01-21 06:53:00,29.0,8.0,-100.00,SSW,213,28.0,42.0,42,0.00,,,-99.99,,2013-01-21 13:53:00,
2013-01-21 07:03:00,29.0,8.0,-100.00,SSW,209,29.0,40.0,42,0.00,,,-99.99,,2013-01-21 14:03:00,
2013-01-21 07:12:00,29.0,9.0,-100.00,SSW,210,27.0,39.0,43,0.00,,,-99.99,,2013-01-21 14:12:00,
2013-01-21 07:23:00,29.0,9.0,-100.00,SW,215,28.0,43.0,42,0.00,,,-99.99,,2013-01-21 14:23:00,
2013-01-21 07:32:00,29.0,9.0,-100.00,SW,215,26.0,36.0,43,0.00,,,-99.99,,2013-01-21 14:32:00,
2013-01-21 07:43:00,29.0,9.0,-100.00,SW,230,26.0,34.0,43,0.00,,,-99.99,,2013-01-21 14:43:00,
2013-01-21 07:53:00,29.0,9.0,-100.00,SW,222,23.0,34.0,42,0.00,,,-99.99,,2013-01-21 14:53:00,
2013-01-21 08:03:00,29.0,9.0,-100.00,SSW,212,27.0,44.0,42,0.00,,,-99.99,,2013-01-21 15:03:00,
2013-01-21 08:13:00,29.0,9.0,-100.00,SSW,209,31.0,44.0,42,0.00,,,-99.99,,2013-01-21 15:13:00,
2013-01-21 08:23:00,29.0,9.0,-100.00,SSW,205,32.0,44.0,43,0.00,,,-99.99,,2013-01-21 15:23:00,
2013-01-21 08:33:00,29.0,9.0,-100.00,SSW,206,32.0,44.0,43,0.00,,,-99.99,,2013-01-21 15:33:00,
2013-01-21 08:43:00,29.0,10.0,-100.00,SSW,212,32.0,47.0,43,0.00,,,-99.99,,2013-01-21 15:43:00,
2013-01-21 08:52:00,30.0,10.0,-100.00,SSW,209,35.0,52.0,43,0.00,,,-99.99,,2013-01-21 15:52:00,
2013-01-21 09:03:00,30.0,10.0,-100.00,SSW,208,34.0,45.0,43,0.00,,,-99.99,,2013-01-21 16:03:00,
2013-01-21 09:12:00,30.0,10.0,-100.00,SSW,212,32.0,44.0,42,0.00,,,-99.99,,2013-01-21 16:12:00,
2013-01-21 09:23:00,31.0,10.0,-100.00,SSW,210,30.0,44.0,41,0.00,,,-99.99,,2013-01-21 16:23:00,
2013-01-21 09:33:00,32.0,10.0,-100.00,SSW,206,34.0,49.0,40,0.00,,,-99.99,,2013-01-21 16:33:00,
2013-01-21 09:43:00,32.0,10.0,-100.00,SSW,208,37.0,49.0,39,0.00,,,-99.99,,2013-01-21 16:43:00,
2013-01-21 09:53:00,32.0,10.0,-100.00,SSW,212,35.0,47.0,39,0.00,,,-99.99,,2013-01-21 16:53:00,
2013-01-21 10:02:00,33.0,11.0,-100.00,SSW,210,34.0,47.0,39,0.00,,,-99.99,,2013-01-21 17:02:00,
2013-01-21 10:12:00,33.0,11.0,-100.00,SSW,210,35.0,47.0,39,0.00,,,-99.99,,2013-01-21 17:12:00,
2013-01-21 10:22:00,33.0,10.0,-100.00,SSW,212,34.0,44.0,37,0.00,,,-99.99,,2013-01-21 17:22:00,
2013-01-21 10:33:00,34.0,10.0,-100.00,SW,217,33.0,44.0,37,0.00,,,-99.99,,2013-01-21 17:33:00,
2013-01-21 10:43:00,34.0,10.0,-100.00,SSW,212,34.0,44.0,36,0.00,,,-99.99,,2013-01-21 17:43:00,
2013-01-21 10:52:00,34.0,9.0,-100.00,SSW,213,34.0,42.0,35,0.00,,,-99.99,,2013-01-21 17:52:00,
2013-01-21 11:03:00,34.0,9.0,-100.00,SSW,212,34.0,44.0,34,0.00,,,-99.99,,2013-01-21 18:03:00,
2013-01-21 11:12:00,35.0,9.0,-100.00,SSW,212,35.0,48.0,34,0.00,,,-99.99,,2013-01-21 18:12:00,
2013-01-21 11:22:00,35.0,9.0,-100.00,SW,215,34.0,42.0,34,0.00,,,-99.99,,2013-01-21 18:22:00,
2013-01-21 11:33:00,35.0,9.0,-100.00,SW,216,37.0,46.0,33,0.00,,,-99.99,,2013-01-21 18:33:00,
2013-01-21 11:42:00,35.0,9.0,-100.00,SW,216,35.0,49.0,33,0.00,,,-99.99,,2013-01-21 18:42:00,
2013-01-21 11:52:00,35.0,8.0,-100.00,SSW,213,37.0,52.0,32,0.00,,,-99.99,,2013-01-21 18:52:00,
2013-01-21 12:03:00,36.0,8.0,-100.00,SW,216,32.0,44.0,31,0.00,,,-99.99,,2013-01-21 19:03:00,
2013-01-21 12:12:00,36.0,8.0,-100.00,SSW,210,33.0,44.0,31,0.00,,,-99.99,,2013-01-21 19:12:00,
2013-01-21 12:22:00,36.0,8.0,-100.00,SSW,210,32.0,44.0,31,0.00,,,-99.99,,2013-01-21 19:22:00,
2013-01-21 12:33:00,36.0,8.0,-100.00,SSW,208,32.0,45.0,30,0.00,,,-99.99,,2013-01-21 19:33:00,
2013-01-21 12:53:00,37.0,7.0,-100.00,SSW,205,33.0,45.0,28,0.00,,,-99.99,,2013-01-21 19:53:00,
2013-01-21 13:03:00,37.0,7.0,-100.00,SSW,209,34.0,45.0,29,0.00,,,-99.99,,2013-01-21 20:03:00,
2013-01-21 13:12:00,37.0,6.0,-100.00,SSW,212,34.0,45.0,27,0.00,,,-99.99,,2013-01-21 20:12:00,
2013-01-21 13:22:00,36.0,6.0,-100.00,SSW,212,33.0,45.0,28,0.00,,,-99.99,,2013-01-21 20:22:00,
2013-01-21 13:33:00,36.0,6.0,-100.00,SW,215,35.0,49.0,28,0.00,,,-99.99,,2013-01-21 20:33:00,
2013-01-21 13:43:00,37.0,6.0,-100.00,SW,219,34.0,46.0,27,0.00,,,-99.99,,2013-01-21 20:43:00,
2013-01-21 13:53:00,37.0,7.0,-100.00,SW,217,32.0,47.0,28,0.00,,,-99.99,,2013-01-21 20:53:00,
2013-01-21 14:03:00,36.0,6.0,-100.00,SSW,213,36.0,49.0,27,0.00,,,-99.99,,2013-01-21 21:03:00,
2013-01-21 14:12:00,36.0,6.0,-100.00,SSW,212,34.0,45.0,27,0.00,,,-99.99,,2013-01-21 21:12:00,
2013-01-21 14:22:00,36.0,5.0,-100.00,SSW,210,34.0,47.0,27,0.00,,,-99.99,,2013-01-21 21:22:00,
2013-01-21 14:33:00,36.0,5.0,-100.00,SSW,210,35.0,45.0,27,0.00,,,-99.99,,2013-01-21 21:33:00,
2013-01-21 14:43:00,37.0,5.0,-100.00,SSW,209,34.0,45.0,26,0.00,,,-99.99,,2013-01-21 21:43:00,
2013-01-21 14:53:00,37.0,5.0,-100.00,SSW,209,32.0,41.0,26,0.00,,,-99.99,,2013-01-21 21:53:00,
2013-01-21 15:03:00,36.0,5.0,-100.00,SW,215,32.0,45.0,26,0.00,,,-99.99,,2013-01-21 22:03:00,
2013-01-21 15:12:00,37.0,5.0,-100.00,SW,220,29.0,44.0,26,0.00,,,-99.99,,2013-01-21 22:12:00,
2013-01-21 15:23:00,37.0,3.0,-100.00,SW,217,35.0,45.0,24,0.00,,,-99.99,,2013-01-21 22:23:00,
2013-01-21 15:33:00,37.0,4.0,-100.00,SW,224,30.0,43.0,25,0.00,,,-99.99,,2013-01-21 22:33:00,
2013-01-21 15:42:00,36.0,4.0,-100.00,SW,222,32.0,45.0,25,0.00,,,-99.99,,2013-01-21 22:42:00,
2013-01-21 15:52:00,36.0,3.0,-100.00,SW,217,37.0,48.0,25,0.00,,,-99.99,,2013-01-21 22:52:00,
2013-01-21 16:03:00,36.0,3.0,-100.00,SW,219,32.0,44.0,24,0.00,,,-99.99,,2013-01-21 23:03:00,
2013-01-21 16:12:00,36.0,3.0,-100.00,SSW,213,31.0,47.0,24,0.00,,,-99.99,,2013-01-21 23:12:00,
2013-01-21 16:22:00,36.0,3.0,-100.00,SSW,210,31.0,44.0,25,0.00,,,-99.99,,2013-01-21 23:22:00,
2013-01-21 16:33:00,35.0,4.0,-100.00,SSW,210,32.0,44.0,25,0.00,,,-99.99,,2013-01-21 23:33:00,
2013-01-21 16:42:00,35.0,4.0,-100.00,SSW,209,37.0,46.0,26,0.00,,,-99.99,,2013-01-21 23:42:00,
2013-01-21 16:53:00,35.0,4.0,-100.00,SW,217,34.0,45.0,27,0.00,,,-99.99,,2013-01-21 23:53:00,
2013-01-21 17:02:00,35.0,3.0,-100.00,SSW,213,34.0,45.0,26,0.00,,,-99.99,,2013-01-22 00:02:00,
2013-01-21 17:12:00,35.0,3.0,-100.00,SW,216,33.0,45.0,26,0.00,,,-99.99,,2013-01-22 00:12:00,
2013-01-21 17:22:00,34.0,4.0,-100.00,SW,223,32.0,43.0,27,0.00,,,-99.99,,2013-01-22 00:22:00,
2013-01-21 17:32:00,34.0,4.0,-100.00,SSW,212,33.0,45.0,27,0.00,,,-99.99,,2013-01-22 00:32:00,
2013-01-21 17:42:00,34.0,3.0,-100.00,SSW,210,35.0,52.0,27,0.00,,,-99.99,,2013-01-22 00:42:00,
2013-01-21 17:53:00,34.0,3.0,-100.00,SSW,209,35.0,44.0,27,0.00,,,-99.99,,2013-01-22 00:53:00,
2013-01-21 18:02:00,35.0,3.0,-100.00,SSW,210,35.0,49.0,26,0.00,,,-99.99,,2013-01-22 01:02:00,
2013-01-21 18:12:00,35.0,3.0,-100.00,SSW,212,37.0,51.0,25,0.00,,,-99.99,,2013-01-22 01:12:00,
2013-01-21 18:23:00,35.0,3.0,-100.00,SSW,210,37.0,50.0,26,0.00,,,-99.99,,2013-01-22 01:23:00,
2013-01-21 18:32:00,35.0,4.0,-100.00,SSW,209,38.0,47.0,26,0.00,,,-99.99,,2013-01-22 01:32:00,
2013-01-21 18:42:00,35.0,3.0,-100.00,SSW,210,37.0,50.0,26,0.00,,,-99.99,,2013-01-22 01:42:00,
2013-01-21 18:52:00,35.0,4.0,-100.00,SSW,213,36.0,48.0,26,0.00,,,-99.99,,2013-01-22 01:52:00,
2013-01-21 19:02:00,35.0,3.0,-100.00,SW,216,35.0,46.0,25,0.00,,,-99.99,,2013-01-22 02:02:00,
2013-01-21 19:12:00,35.0,3.0,-100.00,SW,216,33.0,43.0,26,0.00,,,-99.99,,2013-01-22 02:12:00,
2013-01-21 19:22:00,35.0,3.0,-100.00,SSW,206,35.0,47.0,26,0.00,,,-99.99,,2013-01-22 02:22:00,
2013-01-21 19:32:00,35.0,3.0,-100.00,SSW,206,36.0,49.0,26,0.00,,,-99.99,,2013-01-22 02:32:00,
2013-01-21 19:42:00,35.0,3.0,-100.00,SSW,206,35.0,48.0,26,0.00,,,-99.99,,2013-01-22 02:42:00,
2013-01-21 19:53:00,35.0,3.0,-100.00,SSW,205,37.0,47.0,25,0.00,,,-99.99,,2013-01-22 02:53:00,
2013-01-21 20:02:00,35.0,3.0,-100.00,SSW,200,38.0,48.0,25,0.00,,,-99.99,,2013-01-22 03:02:00,
2013-01-21 20:12:00,35.0,3.0,-100.00,SSW,200,39.0,49.0,25,0.00,,,-99.99,,2013-01-22 03:12:00,
2013-01-21 20:22:00,35.0,4.0,-100.00,SSW,203,37.0,47.0,26,0.00,,,-99.99,,2013-01-22 03:22:00,
2013-01-21 20:32:00,35.0,3.0,-100.00,SSW,205,37.0,52.0,25,0.00,,,-99.99,,2013-01-22 03:32:00,
2013-01-21 20:42:00,35.0,3.0,-100.00,SSW,209,34.0,44.0,25,0.00,,,-99.99,,2013-01-22 03:42:00,
2013-01-21 20:52:00,35.0,3.0,-100.00,SSW,206,35.0,50.0,25,0.00,,,-99.99,,2013-01-22 03:52:00,
2013-01-21 21:02:00,35.0,3.0,-100.00,SSW,206,34.0,46.0,25,0.00,,,-99.99,,2013-01-22 04:02:00,
2013-01-21 21:12:00,36.0,2.0,-100.00,SSW,206,34.0,49.0,24,0.00,,,-99.99,,2013-01-22 04:12:00,
2013-01-21 21:22:00,36.0,2.0,-100.00,SSW,205,35.0,47.0,24,0.00,,,-99.99,,2013-01-22 04:22:00,
2013-01-21 21:32:00,36.0,2.0,-100.00,SSW,205,37.0,50.0,23,0.00,,,-99.99,,2013-01-22 04:32:00,
2013-01-21 21:42:00,36.0,2.0,-100.00,SSW,205,34.0,45.0,23,0.00,,,-99.99,,2013-01-22 04:42:00,
2013-01-21 21:52:00,36.0,1.0,-100.00,SSW,205,36.0,49.0,23,0.00,,,-99.99,,2013-01-22 04:52:00,
2013-01-21 22:04:00,36.0,1.0,-100.00,SSW,203,35.0,47.0,22,0.00,,,-99.99,,2013-01-22 05:04:00,
2013-01-21 22:12:00,36.0,0.0,-100.00,SSW,203,35.0,49.0,21,0.00,,,-99.99,,2013-01-22 05:12:00,
2013-01-21 22:22:00,36.0,0.0,-100.00,SSW,205,35.0,49.0,21,0.00,,,-99.99,,2013-01-22 05:22:00,
2013-01-21 22:32:00,37.0,0.0,-100.00,SSW,205,35.0,49.0,20,0.00,,,-99.99,,2013-01-22 05:32:00,
2013-01-21 22:42:00,37.0,-1.0,-100.00,SSW,205,36.0,45.0,19,0.00,,,-99.99,,2013-01-22 05:42:00,
2013-01-21 22:52:00,37.0,-1.0,-100.00,SSW,206,35.0,50.0,19,0.00,,,-99.99,,2013-01-22 05:52:00,
2013-01-21 23:02:00,38.0,-2.0,-100.00,SW,216,33.0,46.0,18,0.00,,,-99.99,,2013-01-22 06:02:00,
2013-01-21 23:12:00,37.0,-1.0,-100.00,SW,222,32.0,46.0,19,0.00,,,-99.99,,2013-01-22 06:12:00,
2013-01-21 23:22:00,37.0,-2.0,-100.00,SSW,212,33.0,45.0,19,0.00,,,-99.99,,2013-01-22 06:22:00,
2013-01-21 23:32:00,37.0,-2.0,-100.00,SSW,210,37.0,45.0,18,0.00,,,-99.99,,2013-01-22 06:32:00,
2013-01-21 23:42:00,38.0,-2.0,-100.00,SSW,210,37.0,49.0,18,0.00,,,-99.99,,2013-01-22 06:42:00,
2013-01-21 23:52:00,38.0,-3.0,-100.00,SSW,210,35.0,49.0,17,0.00,,,-99.99,,2013-01-22 06:52:00,